createdAt,value
2023-01-07T00:02:48.458Z,6.22
2023-01-07T00:07:12.537Z,6.97
2023-01-07T00:11:39.178Z,6.43
2023-01-07T00:16:05.359Z,7.65
2023-01-07T00:20:31.055Z,7.60
2023-01-07T00:24:55.101Z,6.13
2023-01-07T00:29:20.961Z,6.20
2023-01-07T00:33:51.808Z,7.50
2023-01-07T00:38:18.335Z,7.10
2023-01-07T00:43:01.571Z,6.87
2023-01-07T00:47:25.417Z,6.45
2023-01-07T00:51:49.214Z,6.82
2023-01-07T00:56:16.125Z,7.13
2023-01-07T01:00:40.379Z,6.80
2023-01-07T01:05:04.765Z,6.30
2023-01-07T01:09:29.438Z,7.93
2023-01-07T01:13:59.270Z,7.30
2023-01-07T01:18:23.277Z,7.38
2023-01-07T01:22:47.741Z,6.13
2023-01-07T01:27:11.869Z,6.07
2023-01-07T01:31:37.236Z,6.90
2023-01-07T01:36:05.745Z,10.30
2023-01-07T01:40:31.108Z,8.07
2023-01-07T01:44:57.347Z,7.47
2023-01-07T01:49:35.622Z,7.20
2023-01-07T01:54:01.892Z,7.88
2023-01-07T01:58:30.493Z,6.90
2023-01-07T02:02:58.786Z,7.30
2023-01-07T02:07:25.168Z,7.53
2023-01-07T02:12:01.916Z,8.70
2023-01-07T02:16:31.732Z,6.82
2023-01-07T02:21:10.274Z,8.02
2023-01-07T02:26:09.911Z,9.90
2023-01-07T02:31:09.973Z,7.13
2023-01-07T02:35:56.457Z,7.93
2023-01-07T02:40:27.104Z,7.28
2023-01-07T02:44:59.887Z,6.17
2023-01-07T02:49:25.004Z,6.43
2023-01-07T02:53:51.082Z,7.95
2023-01-07T02:58:50.584Z,5.07
2023-01-07T03:03:36.352Z,5.82
2023-01-07T03:08:14.608Z,4.22
2023-01-07T03:12:46.818Z,4.13
2023-01-07T03:17:16.836Z,4.13
2023-01-07T03:21:41.045Z,5.68
2023-01-07T03:26:07.782Z,6.25
2023-01-07T03:30:34.421Z,5.50
2023-01-07T03:34:59.379Z,5.53
2023-01-07T03:39:27.564Z,6.72
2023-01-07T03:43:52.275Z,5.93
2023-01-07T03:48:17.975Z,5.72
2023-01-07T03:52:41.973Z,6.32
2023-01-07T03:57:06.912Z,7.70
2023-01-07T04:01:31.645Z,5.43
2023-01-07T04:05:57.685Z,6.03
2023-01-07T04:10:21.949Z,5.80
2023-01-07T04:14:46.192Z,6.23
2023-01-07T04:19:10.437Z,5.15
2023-01-07T04:23:36.126Z,5.30
2023-01-07T04:27:54.425Z,5.33
2023-01-07T04:32:19.412Z,5.75
2023-01-07T04:36:43.484Z,5.43
2023-01-07T04:41:09.641Z,5.13
2023-01-07T04:45:34.145Z,6.68
2023-01-07T04:49:58.633Z,4.95
2023-01-07T04:54:25.086Z,4.97
2023-01-07T04:58:51.005Z,4.40
2023-01-07T05:03:15.924Z,3.75
2023-01-07T05:07:40.389Z,4.10
2023-01-07T05:12:06.574Z,3.73
2023-01-07T05:16:33.510Z,3.47
2023-01-07T05:21:01.563Z,3.17
2023-01-07T05:25:25.894Z,4.37
2023-01-07T05:29:50.514Z,4.03
2023-01-07T05:34:16.469Z,4.20
2023-01-07T05:38:41.902Z,4.03
2023-01-07T05:43:07.226Z,3.97
2023-01-07T05:47:31.232Z,3.83
2023-01-07T05:51:56.329Z,5.30
2023-01-07T05:56:20.133Z,3.30
2023-01-07T06:00:44.125Z,4.05
2023-01-07T06:05:09.075Z,3.85
2023-01-07T06:09:34.317Z,4.00
2023-01-07T06:13:58.181Z,4.03
2023-01-07T06:18:23.303Z,3.97
2023-01-07T06:22:47.123Z,4.30
2023-01-07T06:27:13.843Z,4.00
2023-01-07T06:31:37.931Z,3.90
2023-01-07T06:36:01.702Z,4.70
2023-01-07T06:40:25.881Z,4.40
2023-01-07T06:44:51.352Z,3.42
2023-01-07T06:49:15.168Z,3.95
2023-01-07T06:53:39.051Z,2.87
2023-01-07T06:58:02.992Z,3.55
2023-01-07T07:02:29.462Z,2.95
2023-01-07T07:06:53.268Z,3.40
2023-01-07T07:11:17.096Z,3.57
2023-01-07T07:15:41.031Z,3.40
2023-01-07T07:20:07.789Z,3.97
2023-01-07T07:24:31.578Z,3.10
2023-01-07T07:28:55.354Z,3.60
2023-01-07T07:33:19.988Z,4.32
2023-01-07T07:37:45.142Z,3.33
2023-01-07T07:42:09.036Z,4.22
2023-01-07T07:46:33.771Z,4.03
2023-01-07T07:50:57.673Z,4.43
2023-01-07T07:55:26.312Z,4.20
2023-01-07T07:59:50.514Z,4.25
2023-01-07T08:04:14.259Z,5.18
2023-01-07T08:08:38.018Z,4.80
2023-01-07T08:13:03.279Z,5.40
2023-01-07T08:17:27.063Z,4.50
2023-01-07T08:21:52.078Z,5.20
2023-01-07T08:26:15.813Z,5.65
2023-01-07T08:30:41.365Z,5.80
2023-01-07T08:35:05.852Z,6.55
2023-01-07T08:39:29.854Z,6.40
2023-01-07T08:43:54.835Z,4.22
2023-01-07T08:48:20.267Z,3.38
2023-01-07T08:52:46.829Z,3.83
2023-01-07T08:57:10.574Z,3.20
2023-01-07T09:01:34.525Z,4.65
2023-01-07T09:05:59.987Z,2.93
2023-01-07T09:10:24.582Z,5.82
2023-01-07T09:14:48.399Z,3.47
2023-01-07T09:19:12.199Z,3.95
2023-01-07T09:23:37.400Z,4.33
2023-01-07T09:28:01.151Z,4.43
2023-01-07T09:32:25.038Z,4.13
2023-01-07T09:36:48.894Z,3.47
2023-01-07T09:41:29.121Z,4.35
2023-01-07T09:45:55.877Z,2.70
2023-01-07T09:50:28.301Z,3.30
2023-01-07T09:54:57.745Z,4.55
2023-01-07T09:59:22.993Z,4.10
2023-01-07T10:03:55.533Z,7.18
2023-01-07T10:08:32.059Z,4.20
2023-01-07T10:13:09.809Z,3.75
2023-01-07T10:17:48.571Z,3.63
2023-01-07T10:22:39.008Z,3.77
2023-01-07T10:27:29.941Z,3.35
2023-01-07T10:31:57.667Z,2.33
2023-01-07T10:36:26.694Z,3.97
2023-01-07T10:40:54.366Z,2.58
2023-01-07T10:45:30.472Z,3.33
2023-01-07T10:50:18.254Z,3.45
2023-01-07T10:55:00.132Z,3.20
2023-01-07T10:59:25.428Z,4.22
2023-01-07T11:03:51.042Z,2.53
2023-01-07T11:08:30.080Z,2.87
2023-01-07T11:12:58.092Z,2.53
2023-01-07T11:17:31.534Z,3.70
2023-01-07T11:21:55.473Z,2.43
2023-01-07T11:26:52.699Z,4.32
2023-01-07T11:31:19.259Z,3.53
2023-01-07T11:35:53.103Z,4.53
2023-01-07T11:40:23.855Z,3.10
2023-01-07T11:44:49.975Z,2.60
2023-01-07T11:49:24.899Z,3.42
2023-01-07T11:53:55.430Z,2.73
2023-01-07T11:58:28.010Z,2.90
2023-01-07T12:03:06.306Z,2.05
2023-01-07T12:07:31.546Z,2.37
2023-01-07T12:11:57.617Z,2.97
2023-01-07T12:16:29.025Z,3.70
2023-01-07T12:21:21.076Z,3.45
2023-01-07T12:25:55.172Z,3.20
2023-01-07T12:30:51.417Z,4.43
2023-01-07T12:35:19.443Z,2.70
2023-01-07T12:39:46.138Z,3.30
2023-01-07T12:44:18.845Z,3.70
2023-01-07T12:48:53.533Z,4.30
2023-01-07T12:53:19.377Z,3.53
2023-01-07T12:57:45.297Z,3.38
2023-01-07T13:02:26.111Z,3.72
2023-01-07T13:06:54.839Z,4.90
2023-01-07T13:11:46.249Z,3.20
2023-01-07T13:16:11.729Z,4.55
2023-01-07T13:20:54.382Z,3.88
2023-01-07T13:25:36.015Z,3.97
2023-01-07T13:30:14.987Z,3.78
2023-01-07T13:34:51.600Z,7.07
2023-01-07T13:39:39.775Z,4.20
2023-01-07T13:44:33.520Z,4.00
2023-01-07T13:49:01.329Z,4.72
2023-01-07T13:53:46.191Z,4.47
2023-01-07T13:58:43.348Z,4.60
2023-01-07T14:03:32.919Z,6.18
2023-01-07T14:07:59.497Z,4.90
2023-01-07T14:12:50.934Z,5.20
2023-01-07T14:17:34.932Z,5.30
2023-01-07T14:22:07.976Z,5.38
2023-01-07T14:26:44.780Z,5.50
2023-01-07T14:31:22.986Z,7.05
2023-01-07T14:36:08.135Z,6.70
2023-01-07T14:41:09.197Z,5.80
2023-01-07T14:46:02.242Z,3.93
2023-01-07T14:50:32.895Z,6.57
2023-01-07T14:55:26.786Z,7.97
2023-01-07T15:00:22.402Z,7.40
2023-01-07T15:05:15.532Z,8.20
2023-01-07T15:10:03.139Z,7.78
2023-01-07T15:14:58.034Z,6.53
2023-01-07T15:19:29.699Z,7.05
2023-01-07T15:24:10.723Z,6.00
2023-01-07T15:28:49.021Z,6.22
2023-01-07T15:33:42.309Z,6.00
2023-01-07T15:38:27.073Z,5.25
2023-01-07T15:43:01.942Z,6.70
2023-01-07T15:47:37.817Z,7.03
2023-01-07T15:52:04.156Z,9.63
2023-01-07T15:56:41.929Z,5.30
2023-01-07T16:01:15.186Z,8.13
2023-01-07T16:05:48.690Z,9.05
2023-01-07T16:10:25.308Z,8.45
2023-01-07T16:14:49.461Z,6.88
2023-01-07T16:19:22.136Z,5.60
2023-01-07T16:23:47.447Z,8.45
2023-01-07T16:28:24.436Z,10.43
2023-01-07T16:32:49.296Z,7.20
2023-01-07T16:37:20.533Z,6.63
2023-01-07T16:41:44.673Z,8.00
2023-01-07T16:46:27.627Z,9.20
2023-01-07T16:50:53.063Z,8.05
2023-01-07T16:55:46.673Z,8.07
2023-01-07T17:00:18.945Z,7.45
2023-01-07T17:04:44.755Z,18.80
2023-01-07T17:09:21.280Z,7.43
2023-01-07T17:13:45.188Z,8.88
2023-01-07T17:18:28.968Z,8.20
2023-01-07T17:22:54.865Z,7.45
2023-01-07T17:27:27.421Z,6.32
2023-01-07T17:31:51.998Z,8.70
2023-01-07T17:36:17.898Z,8.02
2023-01-07T17:40:43.380Z,8.95
2023-01-07T17:45:18.331Z,7.53
2023-01-07T17:49:42.310Z,10.10
2023-01-07T17:54:07.528Z,9.77
2023-01-07T17:58:34.401Z,8.70
2023-01-07T18:02:59.487Z,9.43
2023-01-07T18:07:24.108Z,9.80
2023-01-07T18:12:05.787Z,10.32
2023-01-07T18:16:34.012Z,8.63
2023-01-07T18:20:58.346Z,9.68
2023-01-07T18:25:23.516Z,9.40
2023-01-07T18:29:51.078Z,8.18
2023-01-07T18:34:17.935Z,9.03
2023-01-07T18:38:42.748Z,8.63
2023-01-07T18:43:06.843Z,9.27
2023-01-07T18:47:30.881Z,9.67
2023-01-07T18:51:56.272Z,9.20
2023-01-07T18:56:24.263Z,9.32
2023-01-07T19:00:48.212Z,11.50
2023-01-07T19:05:14.819Z,8.18
2023-01-07T19:09:40.156Z,8.27
2023-01-07T19:14:04.051Z,7.43
2023-01-07T19:18:28.076Z,7.83
2023-01-07T19:22:51.842Z,8.70
2023-01-07T19:27:17.354Z,9.25
2023-01-07T19:31:43.101Z,8.60
2023-01-07T19:36:10.006Z,10.25
2023-01-07T19:40:33.916Z,9.25
2023-01-07T19:44:59.097Z,7.27
2023-01-07T19:49:23.121Z,7.95
2023-01-07T19:53:48.171Z,6.82
2023-01-07T19:58:13.165Z,8.50
2023-01-07T20:02:39.308Z,9.20
2023-01-07T20:07:03.590Z,8.35
2023-01-07T20:11:27.729Z,8.10
2023-01-07T20:15:51.691Z,10.10
2023-01-07T20:20:17.181Z,8.98
2023-01-07T20:24:41.202Z,11.48
2023-01-07T20:29:05.692Z,10.10
2023-01-07T20:33:29.618Z,8.98
2023-01-07T20:37:54.875Z,7.53
2023-01-07T20:42:18.768Z,8.63
2023-01-07T20:46:42.529Z,8.90
2023-01-07T20:51:07.516Z,10.25
2023-01-07T20:55:32.686Z,11.68
2023-01-07T20:59:57.039Z,9.03
2023-01-07T21:04:20.880Z,8.52
2023-01-07T21:08:46.085Z,9.27
2023-01-07T21:13:11.647Z,7.80
2023-01-07T21:17:35.585Z,9.70
2023-01-07T21:22:00.451Z,10.35
2023-01-07T21:26:24.931Z,7.70
2023-01-07T21:30:50.194Z,7.80
2023-01-07T21:35:17.017Z,10.57
2023-01-07T21:39:41.840Z,8.32
2023-01-07T21:44:06.125Z,9.27
2023-01-07T21:48:33.245Z,6.32
2023-01-07T21:52:56.900Z,8.57
2023-01-07T21:57:20.917Z,8.80
2023-01-07T22:01:44.835Z,8.50
2023-01-07T22:06:20.779Z,8.93
2023-01-07T22:10:49.062Z,9.15
2023-01-07T22:15:12.909Z,9.03
2023-01-07T22:19:37.688Z,10.68
2023-01-07T22:24:02.781Z,11.32
2023-01-07T22:28:26.469Z,13.60
2023-01-07T22:32:50.239Z,12.30
2023-01-07T22:37:17.938Z,10.38
2023-01-07T22:41:45.267Z,10.07
2023-01-07T22:46:16.932Z,11.38
2023-01-07T22:50:41.371Z,12.00
2023-01-07T22:55:09.477Z,8.57
2023-01-07T22:59:35.748Z,9.33
2023-01-07T23:04:00.426Z,8.57
2023-01-07T23:08:27.864Z,10.52
2023-01-07T23:12:52.394Z,9.90
2023-01-07T23:17:19.265Z,7.82
2023-01-07T23:21:44.500Z,9.68
2023-01-07T23:26:08.478Z,8.70
2023-01-07T23:30:33.816Z,9.90
2023-01-07T23:34:59.532Z,12.57
2023-01-07T23:39:27.519Z,9.48
2023-01-07T23:43:51.933Z,13.47
2023-01-07T23:48:16.145Z,7.95
2023-01-07T23:52:42.698Z,13.02
2023-01-07T23:57:09.522Z,14.27
